createdAt,value
2018-05-12T00:01:28.981Z,7.20
2018-05-12T00:03:56.233Z,6.33
2018-05-12T00:06:23.341Z,7.00
2018-05-12T00:08:50.633Z,7.70
2018-05-12T00:11:17.773Z,7.43
2018-05-12T00:13:44.933Z,8.10
2018-05-12T00:16:12.950Z,6.83
2018-05-12T00:18:40.166Z,8.00
2018-05-12T00:21:07.353Z,7.00
2018-05-12T00:23:34.452Z,6.90
2018-05-12T00:26:01.551Z,7.40
2018-05-12T00:28:28.750Z,7.33
2018-05-12T00:30:55.900Z,7.93
2018-05-12T00:33:23.004Z,7.23
2018-05-12T00:35:50.868Z,7.30
2018-05-12T00:38:18.766Z,7.80
2018-05-12T00:40:45.929Z,8.73
2018-05-12T00:43:13.183Z,7.23
2018-05-12T00:45:40.336Z,7.60
2018-05-12T00:48:07.485Z,7.93
2018-05-12T00:50:35.553Z,7.57
2018-05-12T00:53:02.803Z,7.50
2018-05-12T00:55:29.920Z,8.23
2018-05-12T00:57:57.821Z,7.93
2018-05-12T01:00:24.971Z,7.47
2018-05-12T01:02:52.079Z,7.23
2018-05-12T01:05:19.952Z,7.77
2018-05-12T01:07:47.132Z,7.23
2018-05-12T01:10:14.222Z,6.90
2018-05-12T01:12:41.497Z,8.50
2018-05-12T01:15:09.400Z,7.33
2018-05-12T01:17:36.453Z,6.53
2018-05-12T01:20:03.801Z,8.30
2018-05-12T01:22:30.849Z,7.90
2018-05-12T01:24:57.998Z,6.73
2018-05-12T01:27:25.063Z,7.77
2018-05-12T01:29:53.088Z,6.73
2018-05-12T01:32:21.053Z,9.30
2018-05-12T01:34:48.288Z,7.30
2018-05-12T01:37:15.488Z,7.77
2018-05-12T01:39:42.813Z,7.27
2018-05-12T01:42:10.065Z,7.00
2018-05-12T01:44:37.241Z,7.13
2018-05-12T01:47:04.392Z,7.23
2018-05-12T01:49:31.950Z,7.60
2018-05-12T01:51:59.001Z,8.37
2018-05-12T01:54:26.222Z,7.50
2018-05-12T01:56:54.018Z,7.17
2018-05-12T01:59:21.367Z,8.27
2018-05-12T02:01:48.522Z,7.90
2018-05-12T02:04:15.643Z,7.70
2018-05-12T02:06:43.510Z,7.20
2018-05-12T02:09:11.707Z,7.50
2018-05-12T02:11:38.836Z,7.50
2018-05-12T02:14:06.006Z,7.47
2018-05-12T02:16:33.238Z,7.13
2018-05-12T02:19:00.677Z,7.83
2018-05-12T02:21:27.836Z,7.40
2018-05-12T02:23:55.730Z,7.30
2018-05-12T02:26:22.758Z,7.60
2018-05-12T02:28:50.992Z,7.30
2018-05-12T02:31:18.974Z,7.30
2018-05-12T02:33:46.268Z,8.03
2018-05-12T02:36:14.443Z,7.77
2018-05-12T02:38:41.896Z,6.90
2018-05-12T02:41:09.018Z,7.13
2018-05-12T02:43:36.240Z,7.50
2018-05-12T02:46:03.421Z,7.37
2018-05-12T02:48:31.820Z,7.50
2018-05-12T02:50:58.970Z,7.97
2018-05-12T02:53:27.144Z,7.90
2018-05-12T02:55:54.300Z,7.83
2018-05-12T02:58:22.497Z,6.53
2018-05-12T03:00:50.514Z,7.87
2018-05-12T03:03:18.741Z,7.10
2018-05-12T03:05:45.811Z,7.20
2018-05-12T03:08:13.177Z,7.60
2018-05-12T03:10:40.578Z,7.40
2018-05-12T03:13:07.888Z,7.20
2018-05-12T03:15:35.079Z,6.87
2018-05-12T03:18:02.235Z,7.47
2018-05-12T03:20:35.589Z,7.50
2018-05-12T03:23:03.598Z,7.10
2018-05-12T03:25:32.999Z,10.10
2018-05-12T03:28:16.118Z,7.10
2018-05-12T03:30:43.208Z,7.13
2018-05-12T03:33:10.421Z,6.90
2018-05-12T03:38:14.238Z,7.10
2018-05-12T03:40:42.440Z,7.73
2018-05-12T03:43:09.869Z,7.30
2018-05-12T03:45:36.913Z,7.77
2018-05-12T03:48:03.974Z,7.87
2018-05-12T03:50:31.155Z,7.83
2018-05-12T03:52:58.570Z,7.57
2018-05-12T03:55:26.614Z,7.30
2018-05-12T03:57:53.639Z,6.47
2018-05-12T04:00:20.834Z,6.60
2018-05-12T04:02:48.053Z,7.77
2018-05-12T04:05:15.166Z,7.03
2018-05-12T04:07:42.254Z,7.50
2018-05-12T04:10:09.483Z,8.07
2018-05-12T04:12:36.557Z,7.17
2018-05-12T04:15:03.775Z,7.43
2018-05-12T04:17:30.949Z,7.20
2018-05-12T04:19:58.297Z,7.43
2018-05-12T04:22:25.344Z,7.50
2018-05-12T04:24:52.481Z,7.67
2018-05-12T04:27:19.578Z,7.03
2018-05-12T04:29:46.730Z,7.30
2018-05-12T04:32:14.218Z,7.00
2018-05-12T04:34:42.013Z,6.90
2018-05-12T04:37:12.477Z,6.97
2018-05-12T04:39:39.779Z,6.90
2018-05-12T04:44:39.917Z,8.30
2018-05-12T04:47:07.659Z,7.10
2018-05-12T04:49:34.933Z,6.80
2018-05-12T04:52:02.035Z,7.03
2018-05-12T04:54:29.068Z,6.77
2018-05-12T04:56:56.159Z,6.97
2018-05-12T04:59:25.425Z,6.73
2018-05-12T05:01:52.751Z,6.87
2018-05-12T05:04:20.031Z,7.17
2018-05-12T05:06:47.376Z,6.90
2018-05-12T05:09:14.634Z,6.03
2018-05-12T05:11:41.784Z,7.60
2018-05-12T05:14:08.934Z,7.47
2018-05-12T05:16:36.018Z,6.67
2018-05-12T05:19:03.923Z,6.77
2018-05-12T05:21:31.097Z,7.10
2018-05-12T05:23:58.132Z,14.83
2018-05-12T05:26:25.194Z,6.43
2018-05-12T05:28:52.283Z,6.60
2018-05-12T05:31:20.208Z,6.37
2018-05-12T05:33:47.605Z,7.13
2018-05-12T05:36:14.618Z,7.17
2018-05-12T05:38:41.835Z,6.63
2018-05-12T05:41:09.176Z,6.73
2018-05-12T05:43:36.226Z,6.67
2018-05-12T05:46:03.830Z,7.90
2018-05-12T05:48:31.646Z,8.97
2018-05-12T05:50:58.647Z,8.83
2018-05-12T05:53:25.632Z,9.70
2018-05-12T05:55:52.630Z,8.93
2018-05-12T05:58:19.640Z,13.07
2018-05-12T06:00:46.648Z,7.37
2018-05-12T06:03:13.644Z,7.87
2018-05-12T06:05:41.419Z,19.23
2018-05-12T06:08:08.442Z,28.17
2018-05-12T06:10:35.451Z,30.67
2018-05-12T06:13:02.450Z,33.10
2018-05-12T06:15:29.646Z,30.00
2018-05-12T06:17:56.705Z,28.67
2018-05-12T06:20:23.874Z,37.77
2018-05-12T06:22:50.869Z,35.40
2018-05-12T06:25:17.939Z,32.83
2018-05-12T06:27:46.075Z,30.60
2018-05-12T06:30:13.436Z,48.40
2018-05-12T06:32:40.511Z,43.17
2018-05-12T06:35:07.523Z,46.67
2018-05-12T06:37:34.533Z,39.93
2018-05-12T06:40:02.329Z,43.70
2018-05-12T06:42:29.342Z,42.00
2018-05-12T06:44:56.368Z,40.60
2018-05-12T06:47:23.422Z,45.10
2018-05-12T06:49:50.512Z,56.70
2018-05-12T06:52:17.527Z,57.60
2018-05-12T06:54:44.528Z,46.13
2018-05-12T06:57:12.901Z,43.47
2018-05-12T06:59:39.943Z,38.83
2018-05-12T07:02:06.956Z,44.17
2018-05-12T07:04:34.894Z,45.03
2018-05-12T07:07:01.928Z,46.47
2018-05-12T07:09:28.955Z,46.97
2018-05-12T07:11:55.952Z,46.57
2018-05-12T07:14:22.951Z,36.57
2018-05-12T07:16:49.948Z,44.80
2018-05-12T07:19:17.148Z,37.33
2018-05-12T07:21:44.296Z,38.87
2018-05-12T07:24:11.312Z,40.97
2018-05-12T07:26:39.079Z,40.10
2018-05-12T07:29:06.151Z,37.47
2018-05-12T07:31:33.148Z,50.83
2018-05-12T07:34:00.155Z,45.13
2018-05-12T07:36:27.196Z,38.17
2018-05-12T07:38:57.508Z,43.30
2018-05-12T07:41:25.552Z,41.37
2018-05-12T07:43:52.556Z,33.80
2018-05-12T07:46:19.573Z,37.53
2018-05-12T07:48:46.663Z,41.00
2018-05-12T07:51:13.671Z,39.07
2018-05-12T07:53:40.700Z,38.27
2018-05-12T07:56:07.688Z,39.13
2018-05-12T07:58:34.829Z,30.27
2018-05-12T08:01:01.822Z,24.83
2018-05-12T08:03:29.648Z,33.43
2018-05-12T08:05:56.656Z,22.23
2018-05-12T08:08:24.006Z,27.33
2018-05-12T08:10:50.999Z,19.60
2018-05-12T08:13:18.004Z,19.60
2018-05-12T08:15:45.115Z,17.77
2018-05-12T08:18:12.405Z,23.83
2018-05-12T08:20:39.573Z,19.40
2018-05-12T08:23:06.515Z,17.90
2018-05-12T08:25:33.577Z,20.73
2018-05-12T08:28:00.593Z,21.07
2018-05-12T08:30:27.626Z,22.73
2018-05-12T08:32:55.397Z,17.90
2018-05-12T08:35:23.181Z,21.40
2018-05-12T08:37:50.175Z,18.70
2018-05-12T08:40:17.192Z,16.10
2018-05-12T08:42:44.209Z,18.07
2018-05-12T08:45:11.967Z,15.80
2018-05-12T08:47:39.665Z,15.87
2018-05-12T08:50:06.706Z,13.60
2018-05-12T08:52:33.715Z,16.97
2018-05-12T08:55:00.861Z,14.43
2018-05-12T08:57:28.657Z,16.13
2018-05-12T08:59:55.720Z,17.00
2018-05-12T09:02:23.358Z,16.07
2018-05-12T09:04:50.358Z,18.90
2018-05-12T09:07:17.500Z,14.70
2018-05-12T09:09:44.518Z,16.30
2018-05-12T09:12:11.512Z,13.20
2018-05-12T09:14:38.518Z,12.63
2018-05-12T09:17:05.541Z,14.43
2018-05-12T09:19:32.720Z,17.00
2018-05-12T09:21:59.728Z,17.57
2018-05-12T09:24:27.487Z,14.87
2018-05-12T09:26:54.534Z,13.43
2018-05-12T09:29:22.330Z,13.70
2018-05-12T09:31:49.332Z,19.80
2018-05-12T09:34:16.331Z,11.50
2018-05-12T09:36:43.334Z,11.73
2018-05-12T09:39:11.145Z,20.90
2018-05-12T09:41:38.146Z,13.03
2018-05-12T09:44:05.144Z,10.97
2018-05-12T09:46:32.161Z,13.07
2018-05-12T09:48:59.962Z,13.90
2018-05-12T09:51:26.970Z,12.70
2018-05-12T09:53:53.972Z,13.30
2018-05-12T09:56:20.965Z,13.50
2018-05-12T09:58:48.138Z,13.93
2018-05-12T10:01:15.167Z,14.53
2018-05-12T10:03:44.225Z,11.63
2018-05-12T10:06:11.314Z,13.67
2018-05-12T10:08:38.373Z,12.93
2018-05-12T10:11:05.400Z,17.93
2018-05-12T10:13:32.394Z,17.53
2018-05-12T10:15:59.403Z,12.93
2018-05-12T10:18:26.573Z,10.97
2018-05-12T10:20:53.593Z,13.20
2018-05-12T10:23:20.592Z,10.83
2018-05-12T10:25:47.590Z,13.57
2018-05-12T10:28:14.738Z,13.80
2018-05-12T10:30:41.740Z,12.13
2018-05-12T10:33:08.731Z,19.77
2018-05-12T10:35:36.522Z,34.20
2018-05-12T10:38:03.512Z,25.30
2018-05-12T10:40:30.543Z,39.50
2018-05-12T10:42:57.552Z,26.40
2018-05-12T10:45:24.640Z,29.93
2018-05-12T10:47:52.326Z,28.87
2018-05-12T10:50:19.322Z,22.93
2018-05-12T10:52:46.328Z,23.60
2018-05-12T10:55:14.090Z,21.93
2018-05-12T10:57:41.097Z,24.37
2018-05-12T11:00:08.287Z,16.80
2018-05-12T11:02:36.096Z,15.83
2018-05-12T11:05:03.110Z,19.57
2018-05-12T11:07:30.896Z,18.20
2018-05-12T11:09:58.053Z,17.27
2018-05-12T11:12:25.055Z,18.73
2018-05-12T11:14:52.054Z,19.77
2018-05-12T11:17:19.631Z,20.97
2018-05-12T11:19:46.719Z,13.77
2018-05-12T11:22:14.515Z,20.83
2018-05-12T11:24:41.531Z,34.47
2018-05-12T11:27:09.308Z,34.80
2018-05-12T11:29:37.136Z,31.20
2018-05-12T11:32:04.140Z,25.10
2018-05-12T11:34:31.129Z,36.70
2018-05-12T11:36:58.124Z,33.63
2018-05-12T11:39:25.293Z,37.13
2018-05-12T11:41:52.290Z,27.27
2018-05-12T11:44:19.515Z,31.13
2018-05-12T11:46:46.545Z,21.77
2018-05-12T11:49:13.703Z,23.93
2018-05-12T11:51:41.448Z,20.00
2018-05-12T11:54:08.509Z,18.63
2018-05-12T11:56:35.490Z,23.80
2018-05-12T11:59:02.715Z,15.90
2018-05-12T12:01:29.715Z,21.97
2018-05-12T12:03:56.717Z,15.10
2018-05-12T12:06:23.725Z,16.03
2018-05-12T12:08:50.901Z,19.23
2018-05-12T12:11:19.159Z,13.13
2018-05-12T12:13:46.287Z,16.80
2018-05-12T12:16:13.285Z,13.60
2018-05-12T12:18:40.368Z,11.73
2018-05-12T12:21:08.170Z,11.87
2018-05-12T12:23:36.442Z,26.53
2018-05-12T12:26:03.443Z,26.40
2018-05-12T12:28:30.543Z,15.80
2018-05-12T12:30:57.540Z,15.40
2018-05-12T12:33:24.611Z,17.40
2018-05-12T12:35:51.596Z,10.77
2018-05-12T12:38:18.851Z,11.10
2018-05-12T12:40:45.835Z,9.90
2018-05-12T12:43:13.623Z,9.93
2018-05-12T12:45:40.618Z,10.20
2018-05-12T12:48:07.628Z,10.67
2018-05-12T12:50:34.635Z,10.40
2018-05-12T12:53:01.646Z,9.60
2018-05-12T12:55:29.603Z,11.00
2018-05-12T12:57:57.740Z,9.87
2018-05-12T13:00:25.502Z,11.23
2018-05-12T13:02:53.314Z,31.20
2018-05-12T13:05:20.414Z,14.83
2018-05-12T13:07:48.168Z,13.23
2018-05-12T13:10:15.161Z,11.40
2018-05-12T13:12:42.168Z,16.23
2018-05-12T13:15:09.452Z,12.43
2018-05-12T13:17:36.466Z,10.10
2018-05-12T13:20:04.281Z,10.93
2018-05-12T13:22:31.280Z,29.93
2018-05-12T13:24:58.331Z,29.93
2018-05-12T13:27:25.364Z,25.63
2018-05-12T13:29:52.509Z,22.30
2018-05-12T13:32:19.562Z,14.70
2018-05-12T13:34:46.559Z,12.13
2018-05-12T13:37:13.553Z,13.33
2018-05-12T13:39:40.656Z,15.90
2018-05-12T13:42:07.660Z,11.03
2018-05-12T13:44:34.674Z,8.93
2018-05-12T13:47:01.681Z,14.23
2018-05-12T13:49:28.855Z,11.20
2018-05-12T13:51:55.847Z,10.10
2018-05-12T13:54:22.865Z,11.07
2018-05-12T13:56:49.861Z,8.80
2018-05-12T13:59:17.835Z,21.70
2018-05-12T14:01:44.841Z,10.53
2018-05-12T14:04:11.898Z,10.90
2018-05-12T14:06:39.003Z,9.50
2018-05-12T14:09:06.864Z,11.27
2018-05-12T14:11:33.852Z,9.93
2018-05-12T14:14:00.852Z,9.00
2018-05-12T14:16:27.864Z,9.17
2018-05-12T14:18:55.455Z,7.80
2018-05-12T14:21:22.417Z,6.70
2018-05-12T14:23:49.435Z,8.57
2018-05-12T14:26:17.208Z,8.70
2018-05-12T14:28:45.100Z,7.63
2018-05-12T14:31:12.108Z,9.57
2018-05-12T14:33:39.090Z,8.60
2018-05-12T14:36:06.106Z,9.63
2018-05-12T14:38:33.897Z,9.93
2018-05-12T14:41:00.944Z,9.60
2018-05-12T14:43:27.959Z,8.70
2018-05-12T14:45:54.938Z,8.40
2018-05-12T14:48:22.097Z,8.80
2018-05-12T14:50:49.097Z,10.93
2018-05-12T14:53:16.875Z,11.40
2018-05-12T14:55:44.644Z,11.80
2018-05-12T14:58:11.716Z,10.30
2018-05-12T15:00:38.712Z,9.47
2018-05-12T15:03:05.715Z,8.67
2018-05-12T15:05:32.696Z,11.33
2018-05-12T15:07:59.680Z,20.03
2018-05-12T15:10:26.671Z,13.43
2018-05-12T15:12:53.684Z,12.50
2018-05-12T15:15:20.693Z,15.70
2018-05-12T15:17:47.712Z,10.03
2018-05-12T15:20:14.700Z,20.40
2018-05-12T15:22:42.470Z,11.47
2018-05-12T15:25:10.229Z,14.23
2018-05-12T15:27:37.321Z,9.07
2018-05-12T15:30:04.356Z,10.60
2018-05-12T15:32:31.351Z,9.50
2018-05-12T15:34:58.346Z,11.20
2018-05-12T15:37:25.346Z,8.70
2018-05-12T15:39:52.539Z,9.73
2018-05-12T15:42:19.545Z,9.30
2018-05-12T15:44:46.531Z,7.43
2018-05-12T15:47:13.522Z,8.97
2018-05-12T15:49:40.737Z,12.10
2018-05-12T15:52:07.728Z,16.30
2018-05-12T15:54:34.730Z,10.03
2018-05-12T15:57:01.745Z,12.70
2018-05-12T15:59:28.932Z,8.60
2018-05-12T16:01:55.943Z,14.30
2018-05-12T16:04:22.936Z,9.30
2018-05-12T16:06:49.936Z,7.43
2018-05-12T16:09:17.739Z,6.67
2018-05-12T16:11:44.747Z,7.80
2018-05-12T16:14:15.576Z,11.27
2018-05-12T16:16:42.560Z,17.43
2018-05-12T16:19:09.614Z,14.80
2018-05-12T16:21:36.616Z,9.50
2018-05-12T16:24:03.602Z,10.97
2018-05-12T16:26:30.624Z,11.20
2018-05-12T16:28:58.429Z,7.73
2018-05-12T16:31:25.708Z,25.53
2018-05-12T16:33:52.667Z,13.33
2018-05-12T16:36:19.699Z,12.03
2018-05-12T16:38:46.822Z,18.60
2018-05-12T16:41:13.824Z,25.57
2018-05-12T16:43:40.823Z,25.87
2018-05-12T16:46:07.821Z,28.10
2018-05-12T16:51:15.570Z,249.43
2018-05-12T16:53:42.608Z,129.60
2018-05-12T16:56:09.633Z,108.07
2018-05-12T16:58:37.527Z,88.07
2018-05-12T17:01:04.568Z,95.27
2018-05-12T17:03:31.561Z,64.57
2018-05-12T17:05:58.567Z,57.27
2018-05-12T17:08:25.720Z,58.23
2018-05-12T17:10:52.715Z,52.30
2018-05-12T17:13:19.741Z,41.10
2018-05-12T17:15:46.773Z,36.90
2018-05-12T17:18:13.907Z,37.67
2018-05-12T17:20:40.907Z,34.33
2018-05-12T17:23:07.931Z,34.43
2018-05-12T17:25:35.042Z,32.27
2018-05-12T17:28:02.039Z,34.63
2018-05-12T17:30:29.039Z,31.63
2018-05-12T17:32:56.029Z,36.30
2018-05-12T17:35:23.039Z,36.83
2018-05-12T17:37:50.130Z,40.60
2018-05-12T17:40:17.087Z,31.77
2018-05-12T17:42:44.077Z,33.03
2018-05-12T17:45:11.144Z,31.83
2018-05-12T17:47:38.175Z,25.67
2018-05-12T17:50:06.375Z,27.97
2018-05-12T17:52:33.387Z,29.37
2018-05-12T17:55:00.516Z,30.90
2018-05-12T17:57:27.465Z,27.83
2018-05-12T17:59:55.379Z,17.23
2018-05-12T18:02:22.562Z,14.60
2018-05-12T18:04:49.544Z,16.17
2018-05-12T18:07:16.552Z,17.30
2018-05-12T18:09:43.762Z,17.10
2018-05-12T18:12:10.766Z,12.33
2018-05-12T18:14:38.896Z,13.93
2018-05-12T18:17:05.908Z,12.00
2018-05-12T18:19:32.969Z,11.20
2018-05-12T18:22:00.080Z,13.97
2018-05-12T18:24:29.152Z,12.20
2018-05-12T18:26:59.045Z,10.67
2018-05-12T18:29:26.277Z,9.30
2018-05-12T18:31:53.649Z,13.47
2018-05-12T18:34:20.652Z,10.10
2018-05-12T18:36:48.417Z,8.13
2018-05-12T18:39:15.497Z,11.43
2018-05-12T18:41:42.605Z,12.37
2018-05-12T18:44:10.435Z,9.23
2018-05-12T18:46:37.449Z,9.97
2018-05-12T18:49:04.514Z,8.30
2018-05-12T18:51:32.712Z,13.33
2018-05-12T18:53:59.710Z,9.37
2018-05-12T18:56:26.722Z,9.77
2018-05-12T18:58:53.919Z,9.20
2018-05-12T19:01:20.933Z,9.23
2018-05-12T19:03:48.743Z,9.23
2018-05-12T19:06:15.767Z,8.90
2018-05-12T19:08:42.942Z,8.97
2018-05-12T19:11:09.962Z,8.63
2018-05-12T19:13:36.963Z,9.67
2018-05-12T19:16:03.973Z,8.80
2018-05-12T19:18:31.115Z,8.50
2018-05-12T19:20:58.229Z,16.30
2018-05-12T19:23:25.240Z,10.83
2018-05-12T19:25:52.240Z,11.13
2018-05-12T19:28:19.307Z,12.10
2018-05-12T19:30:46.307Z,11.23
2018-05-12T19:33:13.471Z,14.30
2018-05-12T19:35:41.235Z,14.53
2018-05-12T19:38:08.336Z,12.50
2018-05-12T19:40:35.367Z,14.40
2018-05-12T19:43:02.389Z,10.03
2018-05-12T19:45:29.382Z,9.73
2018-05-12T19:47:56.380Z,19.13
2018-05-12T19:50:23.399Z,12.90
2018-05-12T19:52:50.389Z,9.17
2018-05-12T19:55:17.391Z,17.17
2018-05-12T19:57:44.405Z,10.93
2018-05-12T20:00:11.417Z,11.47
2018-05-12T20:02:39.204Z,12.73
2018-05-12T20:05:06.251Z,10.63
2018-05-12T20:07:33.255Z,11.37
2018-05-12T20:10:00.352Z,10.00
2018-05-12T20:12:27.366Z,8.97
2018-05-12T20:14:54.354Z,11.70
2018-05-12T20:17:22.100Z,19.73
2018-05-12T20:19:49.369Z,11.03
2018-05-12T20:22:16.370Z,11.20
2018-05-12T20:24:43.375Z,12.43
2018-05-12T20:27:10.372Z,7.87
2018-05-12T20:29:38.212Z,12.10
2018-05-12T20:32:05.201Z,8.20
2018-05-12T20:34:32.202Z,11.63
2018-05-12T20:36:59.352Z,8.67
2018-05-12T20:39:26.360Z,9.93
2018-05-12T20:41:53.359Z,8.27
2018-05-12T20:44:20.351Z,9.90
2018-05-12T20:46:47.357Z,11.40
2018-05-12T20:49:14.561Z,9.10
2018-05-12T20:51:41.559Z,8.87
2018-05-12T20:54:08.540Z,10.03
2018-05-12T20:56:35.884Z,9.10
2018-05-12T20:59:02.947Z,8.53
2018-05-12T21:01:29.955Z,8.60
2018-05-12T21:03:57.736Z,8.33
2018-05-12T21:06:25.522Z,10.70
2018-05-12T21:08:52.580Z,7.47
2018-05-12T21:11:19.567Z,6.87
2018-05-12T21:13:46.564Z,10.23
2018-05-12T21:16:13.985Z,7.70
2018-05-12T21:18:41.375Z,12.10
2018-05-12T21:21:08.384Z,12.43
2018-05-12T21:23:36.227Z,7.93
2018-05-12T21:26:03.940Z,7.57
2018-05-12T21:28:30.987Z,7.30
2018-05-12T21:30:58.102Z,12.63
2018-05-12T21:33:25.093Z,7.10
2018-05-12T21:35:52.571Z,9.97
2018-05-12T21:38:19.594Z,7.33
2018-05-12T21:40:47.112Z,10.10
2018-05-12T21:43:14.122Z,7.07
2018-05-12T21:45:41.185Z,7.33
2018-05-12T21:48:08.196Z,7.53
2018-05-12T21:50:35.191Z,6.90
2018-05-12T21:53:02.183Z,7.30
2018-05-12T21:55:29.290Z,6.47
2018-05-12T21:57:56.297Z,9.33
2018-05-12T22:00:23.291Z,11.37
2018-05-12T22:02:50.269Z,7.13
2018-05-12T22:05:17.318Z,7.80
2018-05-12T22:07:44.460Z,6.30
2018-05-12T22:10:11.463Z,6.53
2018-05-12T22:12:38.466Z,6.87
2018-05-12T22:15:05.453Z,8.93
2018-05-12T22:17:32.444Z,7.93
2018-05-12T22:19:59.643Z,7.10
2018-05-12T22:22:26.640Z,7.53
2018-05-12T22:24:54.434Z,8.00
2018-05-12T22:27:21.432Z,5.90
2018-05-12T22:29:48.642Z,10.73
2018-05-12T22:32:15.632Z,6.37
2018-05-12T22:34:42.660Z,6.37
2018-05-12T22:37:09.657Z,7.00
2018-05-12T22:39:36.719Z,7.40
2018-05-12T22:42:03.715Z,6.10
2018-05-12T22:44:30.711Z,6.47
2018-05-12T22:46:57.707Z,6.80
2018-05-12T22:49:24.932Z,5.80
2018-05-12T22:51:51.929Z,5.73
2018-05-12T22:54:18.977Z,6.73
2018-05-12T22:56:45.962Z,6.43
2018-05-12T22:59:13.093Z,6.37
2018-05-12T23:01:40.098Z,6.83
2018-05-12T23:04:07.211Z,6.67
2018-05-12T23:06:34.084Z,5.57
2018-05-12T23:09:01.295Z,6.53
2018-05-12T23:11:28.296Z,5.67
2018-05-12T23:13:55.288Z,6.30
2018-05-12T23:16:22.286Z,6.00
2018-05-12T23:18:50.113Z,6.30
2018-05-12T23:21:17.097Z,7.80
2018-05-12T23:23:44.106Z,6.30
2018-05-12T23:26:11.096Z,6.67
2018-05-12T23:28:38.909Z,5.77
2018-05-12T23:31:05.904Z,5.77
2018-05-12T23:33:32.898Z,5.70
2018-05-12T23:35:59.892Z,5.63
2018-05-12T23:38:27.976Z,6.20
2018-05-12T23:40:55.725Z,5.23
2018-05-12T23:43:22.764Z,5.30
2018-05-12T23:45:49.748Z,5.67
2018-05-12T23:48:16.911Z,5.00
2018-05-12T23:50:43.900Z,5.10
2018-05-12T23:53:10.892Z,5.50
2018-05-12T23:55:37.914Z,5.33
2018-05-12T23:58:05.110Z,5.00
